createdAt,value
2023-03-04T00:00:35.538Z,15.50
2023-03-04T00:01:54.638Z,14.30
2023-03-04T00:02:58.009Z,17.80
2023-03-04T00:04:00.855Z,17.10
2023-03-04T00:05:04.019Z,12.80
2023-03-04T00:06:07.390Z,16.10
2023-03-04T00:07:10.307Z,15.80
2023-03-04T00:08:13.258Z,16.30
2023-03-04T00:09:16.138Z,13.90
2023-03-04T00:10:19.036Z,17.60
2023-03-04T00:11:21.873Z,14.00
2023-03-04T00:12:24.761Z,17.80
2023-03-04T00:13:27.911Z,13.70
2023-03-04T00:14:30.927Z,14.70
2023-03-04T00:15:33.793Z,17.40
2023-03-04T00:16:36.709Z,13.80
2023-03-04T00:17:39.524Z,15.80
2023-03-04T00:18:42.536Z,15.50
2023-03-04T00:19:45.436Z,15.90
2023-03-04T00:20:49.777Z,13.20
2023-03-04T00:21:52.679Z,12.50
2023-03-04T00:22:55.552Z,15.10
2023-03-04T00:23:58.627Z,15.00
2023-03-04T00:25:01.618Z,14.20
2023-03-04T00:26:04.665Z,11.50
2023-03-04T00:27:07.568Z,12.70
2023-03-04T00:28:10.571Z,16.40
2023-03-04T00:29:13.730Z,11.80
2023-03-04T00:30:16.924Z,15.10
2023-03-04T00:31:19.789Z,13.60
2023-03-04T00:32:23.285Z,14.70
2023-03-04T00:33:26.171Z,12.60
2023-03-04T00:34:30.740Z,18.20
2023-03-04T00:35:35.368Z,14.30
2023-03-04T00:36:38.220Z,12.60
2023-03-04T00:37:41.370Z,18.70
2023-03-04T00:38:44.266Z,16.70
2023-03-04T00:39:47.176Z,15.90
2023-03-04T00:40:50.176Z,12.10
2023-03-04T00:41:52.971Z,21.10
2023-03-04T00:42:55.847Z,14.50
2023-03-04T00:43:58.705Z,11.40
2023-03-04T00:45:01.857Z,16.50
2023-03-04T00:46:05.380Z,16.10
2023-03-04T00:47:08.328Z,15.40
2023-03-04T00:48:11.618Z,14.60
2023-03-04T00:49:14.782Z,14.10
2023-03-04T00:50:17.952Z,11.30
2023-03-04T00:51:20.848Z,14.10
2023-03-04T00:52:23.996Z,16.00
2023-03-04T00:53:26.826Z,12.00
2023-03-04T00:54:29.674Z,17.80
2023-03-04T00:55:32.554Z,16.80
2023-03-04T00:56:35.422Z,14.70
2023-03-04T00:57:38.309Z,16.60
2023-03-04T00:58:42.951Z,20.20
2023-03-04T00:59:46.413Z,13.40
2023-03-04T01:00:49.454Z,20.20
2023-03-04T01:01:52.337Z,17.70
2023-03-04T01:02:55.331Z,14.50
2023-03-04T01:03:58.233Z,16.30
2023-03-04T01:05:01.195Z,17.70
2023-03-04T01:06:04.305Z,17.90
2023-03-04T01:07:07.635Z,14.60
2023-03-04T01:08:10.482Z,14.30
2023-03-04T01:09:13.299Z,16.30
2023-03-04T01:10:16.530Z,18.30
2023-03-04T01:11:19.579Z,13.00
2023-03-04T01:12:23.399Z,14.30
2023-03-04T01:13:26.246Z,12.40
2023-03-04T01:14:29.142Z,12.70
2023-03-04T01:15:32.205Z,20.20
2023-03-04T01:16:35.302Z,12.10
2023-03-04T01:17:38.474Z,14.50
2023-03-04T01:18:41.329Z,12.90
2023-03-04T01:19:45.254Z,17.50
2023-03-04T01:20:48.090Z,11.20
2023-03-04T01:21:51.308Z,17.80
2023-03-04T01:22:54.233Z,16.80
2023-03-04T01:23:57.092Z,16.90
2023-03-04T01:24:59.980Z,13.40
2023-03-04T01:26:03.312Z,13.30
2023-03-04T01:27:06.325Z,16.90
2023-03-04T01:28:09.243Z,17.30
2023-03-04T01:29:12.084Z,14.30
2023-03-04T01:30:15.023Z,16.70
2023-03-04T01:31:17.981Z,13.70
2023-03-04T01:32:21.081Z,15.10
2023-03-04T01:33:24.909Z,13.60
2023-03-04T01:34:27.938Z,13.80
2023-03-04T01:35:30.853Z,14.90
2023-03-04T01:36:33.879Z,16.90
2023-03-04T01:37:36.787Z,14.50
2023-03-04T01:38:39.630Z,18.30
2023-03-04T01:39:43.709Z,15.90
2023-03-04T01:40:46.669Z,13.20
2023-03-04T01:41:49.835Z,15.40
2023-03-04T01:42:53.363Z,13.20
2023-03-04T01:44:00.862Z,12.00
2023-03-04T01:45:05.021Z,15.50
2023-03-04T01:46:10.347Z,14.90
2023-03-04T01:47:14.054Z,20.20
2023-03-04T01:48:20.322Z,13.90
2023-03-04T01:49:23.549Z,18.70
2023-03-04T01:50:35.607Z,15.70
2023-03-04T01:51:38.421Z,17.00
2023-03-04T01:52:42.981Z,15.90
2023-03-04T01:53:50.189Z,12.80
2023-03-04T01:54:53.039Z,16.30
2023-03-04T01:56:09.575Z,15.00
2023-03-04T01:57:21.733Z,14.40
2023-03-04T01:58:30.206Z,16.90
2023-03-04T01:59:33.102Z,15.50
2023-03-04T02:00:37.311Z,11.80
2023-03-04T02:01:43.953Z,13.00
2023-03-04T02:02:49.999Z,10.60
2023-03-04T02:03:53.093Z,14.10
2023-03-04T02:04:56.079Z,10.60
2023-03-04T02:05:58.924Z,13.50
2023-03-04T02:07:03.799Z,14.30
2023-03-04T02:08:07.685Z,13.50
2023-03-04T02:09:12.902Z,10.40
2023-03-04T02:10:15.978Z,15.40
2023-03-04T02:11:18.826Z,13.20
2023-03-04T02:12:21.858Z,14.90
2023-03-04T02:13:24.879Z,17.60
2023-03-04T02:14:28.246Z,15.60
2023-03-04T02:15:31.625Z,17.70
2023-03-04T02:16:34.886Z,16.10
2023-03-04T02:17:38.056Z,15.50
2023-03-04T02:18:40.958Z,12.80
2023-03-04T02:20:11.778Z,10.50
2023-03-04T02:22:21.858Z,13.00
2023-03-04T02:23:52.688Z,13.80
2023-03-04T02:25:07.895Z,13.20
2023-03-04T02:26:22.602Z,14.00
2023-03-04T02:27:27.299Z,12.50
2023-03-04T02:28:30.160Z,12.70
2023-03-04T02:29:33.088Z,14.40
2023-03-04T02:32:39.756Z,8.70
2023-03-04T02:33:42.836Z,14.10
2023-03-04T02:34:48.582Z,12.70
2023-03-04T02:35:51.494Z,12.40
2023-03-04T02:36:56.055Z,13.30
2023-03-04T02:37:58.897Z,16.40
2023-03-04T02:39:07.196Z,10.30
2023-03-04T02:40:18.718Z,13.80
2023-03-04T02:41:26.709Z,11.90
2023-03-04T02:42:29.578Z,13.00
2023-03-04T02:43:33.011Z,12.00
2023-03-04T02:44:39.111Z,11.90
2023-03-04T02:45:50.373Z,11.70
2023-03-04T02:46:54.169Z,12.70
2023-03-04T02:47:56.954Z,11.70
2023-03-04T02:48:59.952Z,13.00
2023-03-04T02:50:05.127Z,14.80
2023-03-04T02:51:07.961Z,12.90
2023-03-04T02:52:22.543Z,9.90
2023-03-04T02:53:25.641Z,9.90
2023-03-04T02:54:29.473Z,10.20
2023-03-04T02:55:33.346Z,15.20
2023-03-04T02:56:36.523Z,12.00
2023-03-04T02:57:39.380Z,16.80
2023-03-04T02:58:42.291Z,11.90
2023-03-04T02:59:46.132Z,11.40
2023-03-04T03:00:52.764Z,14.90
2023-03-04T03:01:56.030Z,12.80
2023-03-04T03:02:59.030Z,17.10
2023-03-04T03:04:01.880Z,17.40
2023-03-04T03:05:05.528Z,13.10
2023-03-04T03:06:09.010Z,12.00
2023-03-04T03:07:11.934Z,11.40
2023-03-04T03:08:14.879Z,9.10
2023-03-04T03:09:18.434Z,13.90
2023-03-04T03:10:21.697Z,12.60
2023-03-04T03:11:26.749Z,13.30
2023-03-04T03:12:30.481Z,11.80
2023-03-04T03:13:33.311Z,11.60
2023-03-04T03:14:36.706Z,14.50
2023-03-04T03:15:42.383Z,13.80
2023-03-04T03:16:45.686Z,12.10
2023-03-04T03:17:48.908Z,8.90
2023-03-04T03:18:51.813Z,11.40
2023-03-04T03:19:54.686Z,9.80
2023-03-04T03:20:57.585Z,10.90
2023-03-04T03:22:00.439Z,10.60
2023-03-04T03:23:04.177Z,12.80
2023-03-04T03:24:07.006Z,9.90
2023-03-04T03:25:11.717Z,9.40
2023-03-04T03:26:14.847Z,7.80
2023-03-04T03:27:17.673Z,9.10
2023-03-04T03:28:20.615Z,11.70
2023-03-04T03:29:23.568Z,10.10
2023-03-04T03:30:26.806Z,11.90
2023-03-04T03:31:29.809Z,10.40
2023-03-04T03:32:32.967Z,15.00
2023-03-04T03:33:35.873Z,10.30
2023-03-04T03:34:38.794Z,9.70
2023-03-04T03:35:41.631Z,9.30
2023-03-04T03:36:44.560Z,11.10
2023-03-04T03:37:49.145Z,10.40
2023-03-04T03:38:52.015Z,10.20
2023-03-04T03:39:54.809Z,11.50
2023-03-04T03:40:57.663Z,13.20
2023-03-04T03:42:00.556Z,11.10
2023-03-04T03:43:03.701Z,10.90
2023-03-04T03:44:06.523Z,9.40
2023-03-04T03:45:09.777Z,7.80
2023-03-04T03:46:12.651Z,9.00
2023-03-04T03:47:15.973Z,7.20
2023-03-04T03:48:19.060Z,11.60
2023-03-04T03:49:21.878Z,11.40
2023-03-04T03:50:25.008Z,12.60
2023-03-04T03:51:27.856Z,9.60
2023-03-04T03:52:30.812Z,10.80
2023-03-04T03:53:33.799Z,12.20
2023-03-04T03:54:36.761Z,12.70
2023-03-04T03:55:39.743Z,11.40
2023-03-04T03:56:42.654Z,9.50
2023-03-04T03:57:45.510Z,10.10
2023-03-04T03:58:48.614Z,10.00
2023-03-04T03:59:51.413Z,7.80
2023-03-04T04:00:55.898Z,10.00
2023-03-04T04:02:01.037Z,13.30
2023-03-04T04:03:04.202Z,16.50
2023-03-04T04:04:07.307Z,8.80
2023-03-04T04:05:10.537Z,11.10
2023-03-04T04:06:13.495Z,10.80
2023-03-04T04:07:16.553Z,11.70
2023-03-04T04:08:19.638Z,9.70
2023-03-04T04:09:22.510Z,12.60
2023-03-04T04:10:25.306Z,10.20
2023-03-04T04:11:28.197Z,9.80
2023-03-04T04:12:31.679Z,13.40
2023-03-04T04:13:34.726Z,13.00
2023-03-04T04:14:37.600Z,13.30
2023-03-04T04:15:40.587Z,10.30
2023-03-04T04:16:43.552Z,10.00
2023-03-04T04:17:46.424Z,9.70
2023-03-04T04:18:49.461Z,6.90
2023-03-04T04:19:52.339Z,13.80
2023-03-04T04:20:55.240Z,9.20
2023-03-04T04:21:58.094Z,9.20
2023-03-04T04:23:01.014Z,9.00
2023-03-04T04:24:04.243Z,9.30
2023-03-04T04:25:10.526Z,8.10
2023-03-04T04:26:13.555Z,10.60
2023-03-04T04:27:16.424Z,8.80
2023-03-04T04:28:19.208Z,9.40
2023-03-04T04:29:23.244Z,7.50
2023-03-04T04:30:26.254Z,8.00
2023-03-04T04:31:29.144Z,7.40
2023-03-04T04:32:31.910Z,12.60
2023-03-04T04:33:35.314Z,9.30
2023-03-04T04:34:38.244Z,12.80
2023-03-04T04:35:41.241Z,9.80
2023-03-04T04:36:44.178Z,10.00
2023-03-04T04:37:47.018Z,6.80
2023-03-04T04:38:49.837Z,9.50
2023-03-04T04:39:55.453Z,10.60
2023-03-04T04:40:59.311Z,11.00
2023-03-04T04:42:02.115Z,11.00
2023-03-04T04:43:05.046Z,8.90
2023-03-04T04:44:09.011Z,10.50
2023-03-04T04:45:11.955Z,8.00
2023-03-04T04:46:15.950Z,9.20
2023-03-04T04:47:19.005Z,8.50
2023-03-04T04:48:21.870Z,7.70
2023-03-04T04:49:24.772Z,9.20
2023-03-04T04:50:28.141Z,12.10
2023-03-04T04:51:31.250Z,7.00
2023-03-04T04:52:34.127Z,8.50
2023-03-04T04:53:37.717Z,7.60
2023-03-04T04:54:40.622Z,9.90
2023-03-04T04:55:43.440Z,7.90
2023-03-04T04:56:46.210Z,6.80
2023-03-04T04:57:49.057Z,10.90
2023-03-04T04:58:53.984Z,7.70
2023-03-04T04:59:56.778Z,11.30
2023-03-04T05:00:59.730Z,7.90
2023-03-04T05:02:02.627Z,9.80
2023-03-04T05:03:05.477Z,21.70
2023-03-04T05:04:08.427Z,11.90
2023-03-04T05:05:11.293Z,9.80
2023-03-04T05:06:14.174Z,8.60
2023-03-04T05:07:17.054Z,11.20
2023-03-04T05:08:19.886Z,10.70
2023-03-04T05:09:23.105Z,7.70
2023-03-04T05:10:25.948Z,11.40
2023-03-04T05:11:28.822Z,14.20
2023-03-04T05:12:31.686Z,9.20
2023-03-04T05:13:35.333Z,9.80
2023-03-04T05:14:38.232Z,14.50
2023-03-04T05:15:41.075Z,8.20
2023-03-04T05:16:44.168Z,8.60
2023-03-04T05:17:46.999Z,9.40
2023-03-04T05:18:49.887Z,8.60
2023-03-04T05:19:52.698Z,6.40
2023-03-04T05:21:06.240Z,6.10
2023-03-04T05:22:09.294Z,7.30
2023-03-04T05:23:12.165Z,10.70
2023-03-04T05:24:14.967Z,6.90
2023-03-04T05:25:17.848Z,12.50
2023-03-04T05:26:20.856Z,8.60
2023-03-04T05:27:23.917Z,8.20
2023-03-04T05:28:26.810Z,8.50
2023-03-04T05:29:29.655Z,9.30
2023-03-04T05:30:32.517Z,12.50
2023-03-04T05:31:35.395Z,9.00
2023-03-04T05:32:38.372Z,11.20
2023-03-04T05:33:41.236Z,9.00
2023-03-04T05:34:44.047Z,8.10
2023-03-04T05:35:48.873Z,9.10
2023-03-04T05:36:51.748Z,11.90
2023-03-04T05:37:55.085Z,10.80
2023-03-04T05:38:57.899Z,11.80
2023-03-04T05:40:00.749Z,6.70
2023-03-04T05:41:06.799Z,7.10
2023-03-04T05:42:09.587Z,6.90
2023-03-04T05:43:13.305Z,13.10
2023-03-04T05:44:16.294Z,7.50
2023-03-04T05:45:19.401Z,10.10
2023-03-04T05:46:25.764Z,8.10
2023-03-04T05:47:28.825Z,6.80
2023-03-04T05:48:32.197Z,11.00
2023-03-04T05:49:35.000Z,7.60
2023-03-04T05:50:38.052Z,11.60
2023-03-04T05:51:40.834Z,9.30
2023-03-04T05:52:43.886Z,10.50
2023-03-04T05:53:46.988Z,8.00
2023-03-04T05:54:49.839Z,5.70
2023-03-04T05:55:52.772Z,6.30
2023-03-04T05:56:56.148Z,6.20
2023-03-04T05:57:59.053Z,8.30
2023-03-04T05:59:01.914Z,6.20
2023-03-04T06:00:05.914Z,11.60
2023-03-04T06:02:18.295Z,7.00
2023-03-04T06:03:22.606Z,6.90
2023-03-04T06:04:25.518Z,5.90
2023-03-04T06:05:28.407Z,7.30
2023-03-04T06:06:31.849Z,7.10
2023-03-04T06:07:34.786Z,5.90
2023-03-04T06:08:37.642Z,6.10
2023-03-04T06:09:40.485Z,9.30
2023-03-04T06:10:43.314Z,9.90
2023-03-04T06:11:46.256Z,9.40
2023-03-04T06:12:49.163Z,6.60
2023-03-04T06:13:51.982Z,7.30
2023-03-04T06:14:55.549Z,10.10
2023-03-04T06:15:59.898Z,9.50
2023-03-04T06:17:02.773Z,7.60
2023-03-04T06:18:07.522Z,8.80
2023-03-04T06:19:10.345Z,8.60
2023-03-04T06:20:13.522Z,8.10
2023-03-04T06:21:16.431Z,7.90
2023-03-04T06:22:19.315Z,12.30
2023-03-04T06:23:22.058Z,11.20
2023-03-04T06:24:25.003Z,7.20
2023-03-04T06:25:27.879Z,6.80
2023-03-04T06:26:31.271Z,8.80
2023-03-04T06:27:34.080Z,6.70
2023-03-04T06:28:36.928Z,8.30
2023-03-04T06:29:39.857Z,10.30
2023-03-04T06:30:42.710Z,10.30
2023-03-04T06:31:45.699Z,8.10
2023-03-04T06:32:48.617Z,7.00
2023-03-04T06:33:51.646Z,10.70
2023-03-04T06:34:54.475Z,7.30
2023-03-04T06:35:57.490Z,7.90
2023-03-04T06:37:00.790Z,6.30
2023-03-04T06:38:03.803Z,7.30
2023-03-04T06:39:07.613Z,8.20
2023-03-04T06:40:11.760Z,9.10
2023-03-04T06:41:15.013Z,7.70
2023-03-04T06:42:18.040Z,8.30
2023-03-04T06:43:21.613Z,6.40
2023-03-04T06:44:24.625Z,5.20
2023-03-04T06:45:27.663Z,9.40
2023-03-04T06:46:30.728Z,9.80
2023-03-04T06:47:33.613Z,6.40
2023-03-04T06:48:36.693Z,7.40
2023-03-04T06:49:39.901Z,7.10
2023-03-04T06:50:42.676Z,9.40
2023-03-04T06:51:45.671Z,8.60
2023-03-04T06:52:49.383Z,8.90
2023-03-04T06:53:52.183Z,5.50
2023-03-04T06:54:55.004Z,6.20
2023-03-04T06:55:57.821Z,4.30
2023-03-04T06:57:00.702Z,8.10
2023-03-04T06:58:03.556Z,9.20
2023-03-04T06:59:06.378Z,8.40
2023-03-04T07:00:09.948Z,8.00
2023-03-04T07:01:21.333Z,5.80
2023-03-04T07:02:24.234Z,5.40
2023-03-04T07:03:27.193Z,5.60
2023-03-04T07:04:31.475Z,7.60
2023-03-04T07:05:34.264Z,5.30
2023-03-04T07:06:37.122Z,5.30
2023-03-04T07:07:39.948Z,5.80
2023-03-04T07:08:43.814Z,4.90
2023-03-04T07:09:46.693Z,5.70
2023-03-04T07:10:49.673Z,5.90
2023-03-04T07:11:52.569Z,5.60
2023-03-04T07:12:55.582Z,5.40
2023-03-04T07:13:58.504Z,7.20
2023-03-04T07:15:01.638Z,6.40
2023-03-04T07:16:06.839Z,6.50
2023-03-04T07:17:09.737Z,7.20
2023-03-04T07:18:12.614Z,5.10
2023-03-04T07:19:15.751Z,5.00
2023-03-04T07:20:18.684Z,3.30
2023-03-04T07:21:21.891Z,4.20
2023-03-04T07:22:24.856Z,5.30
2023-03-04T07:23:28.145Z,5.00
2023-03-04T07:24:31.183Z,4.50
2023-03-04T07:25:37.136Z,4.40
2023-03-04T07:26:40.318Z,4.00
2023-03-04T07:27:43.131Z,5.00
2023-03-04T07:28:46.574Z,6.20
2023-03-04T07:29:49.410Z,3.60
2023-03-04T07:30:52.223Z,4.70
2023-03-04T07:31:55.702Z,5.80
2023-03-04T07:32:58.610Z,6.00
2023-03-04T07:34:04.762Z,3.40
2023-03-04T07:35:09.163Z,7.10
2023-03-04T07:36:15.003Z,3.90
2023-03-04T07:37:18.191Z,4.40
2023-03-04T07:38:21.086Z,5.40
2023-03-04T07:39:24.100Z,3.10
2023-03-04T07:40:27.285Z,4.60
2023-03-04T07:41:31.090Z,3.40
2023-03-04T07:42:34.719Z,5.00
2023-03-04T07:43:40.479Z,4.70
2023-03-04T07:44:43.388Z,3.40
2023-03-04T07:45:46.304Z,3.90
2023-03-04T07:46:49.252Z,3.20
2023-03-04T07:47:52.435Z,4.90
2023-03-04T07:48:56.574Z,3.10
2023-03-04T07:49:59.723Z,4.20
2023-03-04T07:51:24.036Z,4.90
2023-03-04T07:52:27.229Z,5.20
2023-03-04T07:53:31.273Z,3.00
2023-03-04T07:54:34.280Z,3.80
2023-03-04T07:55:37.115Z,3.50
2023-03-04T07:56:40.130Z,2.90
2023-03-04T07:57:44.317Z,2.60
2023-03-04T07:58:47.688Z,2.80
2023-03-04T07:59:50.508Z,5.90
2023-03-04T08:00:53.435Z,3.00
2023-03-04T08:01:56.433Z,3.60
2023-03-04T08:02:59.376Z,2.80
2023-03-04T08:04:04.797Z,6.50
2023-03-04T08:05:08.695Z,2.60
2023-03-04T08:06:14.875Z,3.80
2023-03-04T08:07:18.087Z,2.90
2023-03-04T08:08:20.979Z,1.50
2023-03-04T08:09:24.061Z,2.90
2023-03-04T08:10:27.477Z,1.50
2023-03-04T08:11:31.346Z,3.40
2023-03-04T08:12:35.443Z,2.60
2023-03-04T08:13:38.539Z,3.90
2023-03-04T08:14:41.597Z,1.80
2023-03-04T08:15:44.467Z,1.40
2023-03-04T08:16:47.439Z,1.50
2023-03-04T08:17:50.434Z,1.20
2023-03-04T08:18:56.027Z,1.40
2023-03-04T08:19:58.871Z,1.50
2023-03-04T08:21:01.902Z,2.90
2023-03-04T08:22:04.774Z,4.00
2023-03-04T08:23:07.715Z,2.70
2023-03-04T08:24:11.680Z,6.70
2023-03-04T08:25:14.844Z,3.80
2023-03-04T08:26:41.834Z,1.50
2023-03-04T08:27:45.192Z,2.80
2023-03-04T08:28:48.562Z,2.70
2023-03-04T08:29:51.502Z,1.50
2023-03-04T08:30:54.981Z,1.60
2023-03-04T08:31:58.618Z,1.70
2023-03-04T08:33:03.203Z,1.60
2023-03-04T08:34:08.746Z,2.30
2023-03-04T08:35:11.844Z,1.90
2023-03-04T08:36:16.155Z,2.00
2023-03-04T08:37:19.019Z,1.40
2023-03-04T08:38:21.920Z,1.90
2023-03-04T08:39:24.778Z,1.50
2023-03-04T08:40:27.789Z,2.00
2023-03-04T08:41:30.769Z,1.70
2023-03-04T08:42:33.585Z,1.20
2023-03-04T08:43:37.201Z,3.60
2023-03-04T08:44:40.050Z,1.50
2023-03-04T08:45:43.043Z,3.50
2023-03-04T08:46:45.878Z,3.60
2023-03-04T08:47:48.949Z,2.00
2023-03-04T08:48:51.919Z,2.40
2023-03-04T08:49:54.974Z,2.50
2023-03-04T08:50:58.155Z,2.50
2023-03-04T08:52:00.919Z,1.60
2023-03-04T08:53:03.944Z,1.80
2023-03-04T08:54:07.184Z,1.20
2023-03-04T08:55:10.376Z,2.40
2023-03-04T08:56:13.736Z,5.80
2023-03-04T08:57:17.063Z,1.50
2023-03-04T08:58:20.226Z,2.50
2023-03-04T08:59:23.254Z,1.50
2023-03-04T09:00:26.365Z,1.70
2023-03-04T09:01:29.394Z,2.00
2023-03-04T09:02:32.623Z,2.20
2023-03-04T09:03:36.352Z,2.30
2023-03-04T09:04:39.457Z,3.00
2023-03-04T09:05:44.925Z,3.20
2023-03-04T09:06:47.801Z,4.10
2023-03-04T09:07:50.819Z,2.70
2023-03-04T09:08:53.977Z,3.10
2023-03-04T09:09:56.931Z,1.60
2023-03-04T09:11:00.441Z,2.70
2023-03-04T09:12:03.918Z,1.80
2023-03-04T09:13:06.892Z,1.50
2023-03-04T09:14:10.040Z,2.70
2023-03-04T09:15:13.127Z,3.50
2023-03-04T09:16:16.586Z,1.80
2023-03-04T09:17:19.450Z,0.70
2023-03-04T09:18:23.588Z,2.30
2023-03-04T09:19:28.021Z,1.60
2023-03-04T09:20:32.655Z,2.70
2023-03-04T09:21:36.166Z,2.00
2023-03-04T09:22:40.536Z,1.70
2023-03-04T09:23:46.476Z,1.60
2023-03-04T09:24:49.333Z,2.80
2023-03-04T09:25:52.217Z,2.50
2023-03-04T09:26:55.278Z,2.20
2023-03-04T09:27:58.261Z,1.20
2023-03-04T09:29:02.425Z,2.20
2023-03-04T09:30:05.911Z,1.10
2023-03-04T09:31:13.251Z,1.30
2023-03-04T09:32:16.564Z,2.30
2023-03-04T09:33:19.403Z,2.10
2023-03-04T09:34:22.219Z,1.20
2023-03-04T09:35:25.215Z,2.60
2023-03-04T09:36:28.176Z,1.00
2023-03-04T09:37:31.451Z,1.30
2023-03-04T09:38:34.244Z,1.90
2023-03-04T09:39:37.150Z,0.90
2023-03-04T09:40:43.441Z,1.90
2023-03-04T09:41:50.492Z,2.80
2023-03-04T09:43:03.329Z,1.10
2023-03-04T09:44:36.711Z,2.60
2023-03-04T09:46:12.396Z,4.20
2023-03-04T09:47:20.612Z,1.30
2023-03-04T09:48:28.033Z,2.20
2023-03-04T09:49:32.264Z,3.50
2023-03-04T09:50:41.377Z,1.60
2023-03-04T09:51:52.409Z,1.60
2023-03-04T09:53:22.806Z,1.60
2023-03-04T09:54:45.432Z,1.70
2023-03-04T09:55:52.071Z,3.00
2023-03-04T09:57:25.185Z,1.50
2023-03-04T09:58:47.483Z,3.60
2023-03-04T09:59:54.899Z,2.20
2023-03-04T10:01:11.156Z,2.20
2023-03-04T10:02:40.230Z,1.80
2023-03-04T10:03:48.624Z,1.20
2023-03-04T10:05:00.090Z,2.60
2023-03-04T10:06:07.644Z,2.20
2023-03-04T10:07:21.517Z,3.10
2023-03-04T10:09:02.036Z,1.50
2023-03-04T10:10:18.013Z,1.80
2023-03-04T10:11:33.295Z,2.40
2023-03-04T10:12:41.109Z,2.40
2023-03-04T10:14:17.956Z,3.90
2023-03-04T10:15:44.721Z,3.70
2023-03-04T10:17:13.852Z,3.90
2023-03-04T10:18:23.099Z,3.20
2023-03-04T10:19:49.091Z,1.80
2023-03-04T10:21:04.403Z,3.60
2023-03-04T10:22:21.083Z,3.40
2023-03-04T10:23:29.720Z,6.20
2023-03-04T10:24:32.580Z,3.50
2023-03-04T10:25:40.888Z,4.20
2023-03-04T10:26:51.842Z,2.20
2023-03-04T10:28:10.253Z,1.80
2023-03-04T10:29:17.418Z,2.60
2023-03-04T10:30:32.528Z,3.10
2023-03-04T10:31:39.239Z,1.20
2023-03-04T10:32:47.905Z,1.50
2023-03-04T10:33:50.934Z,1.20
2023-03-04T10:34:53.738Z,2.50
2023-03-04T10:36:24.598Z,2.60
2023-03-04T10:38:45.941Z,2.60
2023-03-04T10:39:50.719Z,2.50
2023-03-04T10:40:53.502Z,1.50
2023-03-04T10:42:25.039Z,1.90
2023-03-04T10:43:28.373Z,1.80
2023-03-04T10:44:33.857Z,3.30
2023-03-04T10:45:40.394Z,4.30
2023-03-04T10:46:46.855Z,3.30
2023-03-04T10:47:55.338Z,2.70
2023-03-04T10:48:59.105Z,5.80
2023-03-04T10:50:05.590Z,7.30
2023-03-04T10:51:22.384Z,2.50
2023-03-04T10:52:33.040Z,4.20
2023-03-04T10:53:43.336Z,3.00
2023-03-04T10:54:53.873Z,5.20
2023-03-04T10:57:02.768Z,4.00
2023-03-04T10:58:06.706Z,1.50
2023-03-04T10:59:32.326Z,2.90
2023-03-04T11:00:38.357Z,2.50
2023-03-04T11:01:41.166Z,4.00
2023-03-04T11:02:45.807Z,3.60
2023-03-04T11:03:49.981Z,2.70
2023-03-04T11:05:09.503Z,1.40
2023-03-04T11:06:22.964Z,4.30
2023-03-04T11:07:27.286Z,2.30
2023-03-04T11:08:30.084Z,2.00
2023-03-04T11:09:32.903Z,1.10
2023-03-04T11:10:38.588Z,2.50
2023-03-04T11:11:46.162Z,3.00
2023-03-04T11:13:16.070Z,2.10
2023-03-04T11:14:34.809Z,5.30
2023-03-04T11:15:58.612Z,2.10
2023-03-04T11:17:17.286Z,2.30
2023-03-04T11:18:29.157Z,2.90
2023-03-04T11:19:39.414Z,4.60
2023-03-04T11:20:48.473Z,1.70
2023-03-04T11:21:52.629Z,3.00
2023-03-04T11:23:00.521Z,2.20
2023-03-04T11:24:28.250Z,2.60
2023-03-04T11:25:41.199Z,11.50
2023-03-04T11:26:52.054Z,2.40
2023-03-04T11:28:15.306Z,2.30
2023-03-04T11:29:41.190Z,1.90
2023-03-04T11:31:04.670Z,3.60
2023-03-04T11:32:45.722Z,2.00
2023-03-04T11:33:51.335Z,8.40
2023-03-04T11:35:21.807Z,2.40
2023-03-04T11:36:50.802Z,2.20
2023-03-04T11:37:59.883Z,2.40
2023-03-04T11:39:17.408Z,3.30
2023-03-04T11:40:36.767Z,9.00
2023-03-04T11:41:47.904Z,4.00
2023-03-04T11:42:57.621Z,3.00
2023-03-04T11:44:06.348Z,1.30
2023-03-04T11:45:41.529Z,4.20
2023-03-04T11:47:00.118Z,5.90
2023-03-04T11:48:24.173Z,3.80
2023-03-04T11:49:49.702Z,6.60
2023-03-04T11:51:07.442Z,5.90
2023-03-04T11:52:22.528Z,4.50
2023-03-04T11:54:01.059Z,2.40
2023-03-04T11:55:29.001Z,3.70
2023-03-04T11:56:42.379Z,1.60
2023-03-04T11:57:55.256Z,7.00
2023-03-04T11:59:16.644Z,3.90
2023-03-04T12:00:22.738Z,2.70
2023-03-04T12:01:50.482Z,3.60
2023-03-04T12:03:13.084Z,9.00
2023-03-04T12:04:28.752Z,2.50
2023-03-04T12:05:57.331Z,2.80
2023-03-04T12:07:09.748Z,4.90
2023-03-04T12:08:18.595Z,2.80
2023-03-04T12:09:48.124Z,8.70
2023-03-04T12:11:08.844Z,2.60
2023-03-04T12:13:31.225Z,4.40
2023-03-04T12:14:49.074Z,3.10
2023-03-04T12:15:57.967Z,2.40
2023-03-04T12:17:06.490Z,2.10
2023-03-04T12:18:33.823Z,4.40
2023-03-04T12:19:48.101Z,2.30
2023-03-04T12:20:59.350Z,0.90
2023-03-04T12:22:09.379Z,2.10
2023-03-04T12:23:26.601Z,4.20
2023-03-04T12:25:02.652Z,1.90
2023-03-04T12:26:20.803Z,2.70
2023-03-04T12:27:51.852Z,5.00
2023-03-04T12:29:01.436Z,3.80
2023-03-04T12:30:38.609Z,3.00
2023-03-04T12:31:43.293Z,2.40
2023-03-04T12:33:24.899Z,1.80
2023-03-04T12:34:30.868Z,3.40
2023-03-04T12:35:52.676Z,4.40
2023-03-04T12:37:13.788Z,4.40
2023-03-04T12:38:39.230Z,1.80
2023-03-04T12:39:49.575Z,1.20
2023-03-04T12:41:11.412Z,3.80
2023-03-04T12:42:17.420Z,2.80
2023-03-04T12:43:28.636Z,4.40
2023-03-04T12:44:37.309Z,4.50
2023-03-04T12:45:45.143Z,1.80
2023-03-04T12:47:22.940Z,1.70
2023-03-04T12:48:39.769Z,2.20
2023-03-04T12:50:08.720Z,2.60
2023-03-04T12:51:26.605Z,1.40
2023-03-04T12:52:39.562Z,1.10
2023-03-04T12:54:13.274Z,2.70
2023-03-04T12:55:19.306Z,3.90
2023-03-04T12:56:57.875Z,3.00
2023-03-04T12:58:01.298Z,5.30
2023-03-04T12:59:05.786Z,0.90
2023-03-04T13:00:43.244Z,2.70
2023-03-04T13:02:03.942Z,1.20
2023-03-04T13:03:19.149Z,1.80
2023-03-04T13:04:40.129Z,2.40
2023-03-04T13:06:16.818Z,5.10
2023-03-04T13:08:00.816Z,1.30
2023-03-04T13:09:16.042Z,3.10
2023-03-04T13:10:23.691Z,4.10
2023-03-04T13:11:26.575Z,1.60
2023-03-04T13:12:45.655Z,9.10
2023-03-04T13:14:03.062Z,9.70
2023-03-04T13:15:05.806Z,4.00
2023-03-04T13:16:12.071Z,5.80
2023-03-04T13:17:36.522Z,2.40
2023-03-04T13:18:39.627Z,2.10
2023-03-04T13:19:47.263Z,2.20
2023-03-04T13:21:06.653Z,4.00
2023-03-04T13:22:32.821Z,1.30
2023-03-04T13:23:38.280Z,1.60
2023-03-04T13:24:51.045Z,2.70
2023-03-04T13:25:56.736Z,1.30
2023-03-04T13:26:59.862Z,1.60
2023-03-04T13:28:05.700Z,3.20
2023-03-04T13:29:29.202Z,2.70
2023-03-04T13:30:32.170Z,1.40
2023-03-04T13:32:11.645Z,2.10
2023-03-04T13:33:14.632Z,7.00
2023-03-04T13:34:46.573Z,2.40
2023-03-04T13:36:02.279Z,7.80
2023-03-04T13:37:30.160Z,1.80
2023-03-04T13:38:37.358Z,6.00
2023-03-04T13:39:40.403Z,3.10
2023-03-04T13:40:43.497Z,2.50
2023-03-04T13:41:49.358Z,4.00
2023-03-04T13:42:52.433Z,4.70
2023-03-04T13:44:03.796Z,2.50
2023-03-04T13:45:37.251Z,1.20
2023-03-04T13:46:43.256Z,3.60
2023-03-04T13:47:47.950Z,4.90
2023-03-04T13:48:50.847Z,3.80
2023-03-04T13:50:22.432Z,2.60
2023-03-04T13:51:45.122Z,2.90
2023-03-04T13:52:49.135Z,5.10
2023-03-04T13:53:58.681Z,3.90
2023-03-04T13:55:40.374Z,4.40
2023-03-04T13:56:47.696Z,2.40
2023-03-04T13:57:51.150Z,1.50
2023-03-04T13:59:09.446Z,2.70
2023-03-04T14:00:13.979Z,2.80
2023-03-04T14:01:30.428Z,0.90
2023-03-04T14:02:34.662Z,1.40
2023-03-04T14:03:37.611Z,2.40
2023-03-04T14:04:44.084Z,2.10
2023-03-04T14:05:47.021Z,1.70
2023-03-04T14:06:51.918Z,3.90
2023-03-04T14:07:54.823Z,2.20
2023-03-04T14:08:58.294Z,13.30
2023-03-04T14:10:11.710Z,2.50
2023-03-04T14:11:28.678Z,1.80
2023-03-04T14:12:46.500Z,1.80
2023-03-04T14:13:49.841Z,3.60
2023-03-04T14:15:18.083Z,3.10
2023-03-04T14:16:23.805Z,6.30
2023-03-04T14:17:38.968Z,2.90
2023-03-04T14:18:42.001Z,4.70
2023-03-04T14:19:46.526Z,7.00
2023-03-04T14:20:49.842Z,4.10
2023-03-04T14:21:53.057Z,2.50
2023-03-04T14:22:58.216Z,4.30
2023-03-04T14:24:22.482Z,2.30
2023-03-04T14:25:31.347Z,3.70
2023-03-04T14:26:34.849Z,5.60
2023-03-04T14:27:38.466Z,1.90
2023-03-04T14:28:51.743Z,2.30
2023-03-04T14:30:04.019Z,3.20
2023-03-04T14:31:16.571Z,3.50
2023-03-04T14:32:19.568Z,4.10
2023-03-04T14:33:25.966Z,5.40
2023-03-04T14:34:35.804Z,3.60
2023-03-04T14:35:39.120Z,2.20
2023-03-04T14:36:44.798Z,2.50
2023-03-04T14:38:16.050Z,2.20
2023-03-04T14:39:20.283Z,2.10
2023-03-04T14:40:27.911Z,1.80
2023-03-04T14:41:43.290Z,2.70
2023-03-04T14:42:47.177Z,2.80
2023-03-04T14:44:05.378Z,2.50
2023-03-04T14:45:13.715Z,2.40
2023-03-04T14:46:19.935Z,2.00
2023-03-04T14:47:29.908Z,1.80
2023-03-04T14:48:34.096Z,2.50
2023-03-04T14:49:39.156Z,5.20
2023-03-04T14:50:53.409Z,2.80